Time;durP1;ratioP1;P1;durP2;ratioP2;P2;SDS_P1;SDS_P2;PMS_P1;PMS_P2;Temp;Humidity;BMP_temperature;BMP_pressure;BME280_temperature;BME280_humidity;BME280_pressure;Samples;Min_cycle;Max_cycle;Signal;HPM_P1;HPM_P2
2021/06/08 00:00:55;;;;;;;12.30;11.20;;;;;;;;;;5090004;28;20377;-79
2021/06/08 00:03:21;;;;;;;12.40;11.10;;;;;;;;;;5071258;28;21176;-78
2021/06/08 00:05:47;;;;;;;12.70;11.50;;;;;;;;;;5089756;28;20851;-79
2021/06/08 00:08:13;;;;;;;14.10;12.70;;;;;;;;;;5089677;28;20407;-78
2021/06/08 00:10:40;;;;;;;14.52;13.07;;;;;;;;;;5071399;28;20423;-77
2021/06/08 00:13:06;;;;;;;13.02;11.82;;;;;;;;;;5089086;28;20408;-77
2021/06/08 00:15:32;;;;;;;13.20;12.10;;;;;;;;;;5089961;28;20368;-78
2021/06/08 00:17:58;;;;;;;13.32;12.02;;;;;;;;;;5089742;28;20391;-78
2021/06/08 00:20:24;;;;;;;12.90;11.75;;;;;;;;;;5089528;28;20846;-77
2021/06/08 00:22:50;;;;;;;16.40;13.25;;;;;;;;;;5089243;28;20457;-79
2021/06/08 00:25:16;;;;;;;13.27;12.02;;;;;;;;;;5071632;28;20368;-79
2021/06/08 00:27:42;;;;;;;12.20;11.10;;;;;;;;;;5089590;28;20431;-79
2021/06/08 00:30:09;;;;;;;13.98;12.57;;;;;;;;;;5089454;28;20376;-79
2021/06/08 00:32:35;;;;;;;14.88;13.48;;;;;;;;;;5088940;28;20404;-78
2021/06/08 00:35:01;;;;;;;13.88;12.60;;;;;;;;;;5070409;28;20439;-78
2021/06/08 00:37:26;;;;;;;15.02;13.60;;;;;;;;;;5089121;28;20874;-78
2021/06/08 00:39:53;;;;;;;13.48;12.27;;;;;;;;;;5089624;28;20423;-76
2021/06/08 00:42:32;;;;;;;14.38;13.07;;;;;;;;;;5089575;28;20438;-79
2021/06/08 00:44:58;;;;;;;13.50;12.25;;;;;;;;;;5089464;28;20368;-78
2021/06/08 00:47:24;;;;;;;13.18;11.88;;;;;;;;;;5089231;28;20404;-77
2021/06/08 00:49:51;;;;;;;14.07;12.63;;;;;;;;;;5089380;28;20368;-79
2021/06/08 00:52:18;;;;;;;15.05;13.52;;;;;;;;;;5088731;28;20379;-78
2021/06/08 00:54:44;;;;;;;13.75;12.55;;;;;;;;;;5089125;28;20380;-77
2021/06/08 00:57:10;;;;;;;14.60;13.32;;;;;;;;;;5089518;28;20379;-79
2021/06/08 00:59:36;;;;;;;14.25;12.75;;;;;;;;;;5089022;28;20476;-77
2021/06/08 01:02:02;;;;;;;14.77;13.48;;;;;;;;;;5070975;28;20383;-78
2021/06/08 01:04:28;;;;;;;15.18;13.60;;;;;;;;;;5070729;28;20944;-79
2021/06/08 01:06:54;;;;;;;13.93;12.63;;;;;;;;;;5089082;28;20461;-79
2021/06/08 01:09:20;;;;;;;14.98;13.68;;;;;;;;;;5089068;28;20861;-79
2021/06/08 01:11:46;;;;;;;13.95;12.75;;;;;;;;;;5089046;28;20442;-78
2021/06/08 01:14:12;;;;;;;14.93;13.52;;;;;;;;;;5088982;28;20365;-77
2021/06/08 01:16:39;;;;;;;13.30;12.02;;;;;;;;;;5089001;28;20387;-78
2021/06/08 01:19:05;;;;;;;14.93;13.43;;;;;;;;;;5088808;28;20418;-78
2021/06/08 01:21:31;;;;;;;14.25;12.95;;;;;;;;;;5088544;28;20472;-78
2021/06/08 01:23:57;;;;;;;14.32;12.93;;;;;;;;;;5088971;28;20384;-77
2021/06/08 01:26:27;;;;;;;15.15;13.93;;;;;;;;;;5070759;28;20381;-79
2021/06/08 01:28:54;;;;;;;15.70;14.20;;;;;;;;;;5088899;28;20471;-79
2021/06/08 01:31:22;;;;;;;15.98;14.57;;;;;;;;;;5088597;28;20424;-78
2021/06/08 01:33:47;;;;;;;15.32;13.98;;;;;;;;;;5089239;28;20360;-78
2021/06/08 01:36:18;;;;;;;15.43;14.13;;;;;;;;;;5089199;28;20369;-78
2021/06/08 01:38:46;;;;;;;15.13;13.82;;;;;;;;;;5070728;28;20435;-78
2021/06/08 01:41:13;;;;;;;14.25;12.85;;;;;;;;;;5089086;28;20369;-79
2021/06/08 01:43:42;;;;;;;13.02;11.80;;;;;;;;;;5088604;28;20794;-78
2021/06/08 01:46:09;;;;;;;14.57;13.27;;;;;;;;;;5091420;28;20364;-77
2021/06/08 01:48:35;;;;;;;13.93;12.70;;;;;;;;;;5074010;28;20454;-79
2021/06/08 01:51:09;;;;;;;13.60;12.20;;;;;;;;;;5092469;28;20361;-78
2021/06/08 01:53:39;;;;;;;14.27;12.95;;;;;;;;;;5091891;28;20376;-78
2021/06/08 01:56:09;;;;;;;14.55;13.15;;;;;;;;;;5092037;28;20447;-79
2021/06/08 01:58:35;;;;;;;15.60;14.20;;;;;;;;;;5091759;28;20421;-79
2021/06/08 02:01:05;;;;;;;14.85;13.45;;;;;;;;;;5091766;28;20856;-78
2021/06/08 02:03:32;;;;;;;15.80;14.30;;;;;;;;;;5091798;28;20821;-78
2021/06/08 02:06:18;;;;;;;16.00;14.60;;;;;;;;;;5073707;28;20380;-79
2021/06/08 02:08:53;;;;;;;16.38;14.85;;;;;;;;;;5091641;28;20439;-77
2021/06/08 02:11:38;;;;;;;15.95;14.38;;;;;;;;;;5091763;28;20451;-79
2021/06/08 02:14:17;;;;;;;15.80;14.40;;;;;;;;;;5073523;28;20365;-77
2021/06/08 02:16:47;;;;;;;14.80;13.55;;;;;;;;;;5091432;28;20380;-79
2021/06/08 02:19:14;;;;;;;14.70;13.40;;;;;;;;;;5091704;28;20368;-79
2021/06/08 02:21:46;;;;;;;14.75;13.45;;;;;;;;;;5091322;28;20396;-79
2021/06/08 02:24:16;;;;;;;16.00;14.50;;;;;;;;;;5091578;28;20850;-79
2021/06/08 02:26:43;;;;;;;15.20;13.90;;;;;;;;;;5091314;28;20446;-78
2021/06/08 02:29:09;;;;;;;15.02;13.65;;;;;;;;;;5091508;28;20383;-78
2021/06/08 02:31:36;;;;;;;15.27;13.88;;;;;;;;;;5091393;28;20404;-78
2021/06/08 02:34:03;;;;;;;15.35;13.15;;;;;;;;;;5091106;28;20369;-78
2021/06/08 02:36:29;;;;;;;14.60;13.23;;;;;;;;;;5090926;28;20372;-78
2021/06/08 02:38:56;;;;;;;15.43;14.02;;;;;;;;;;5073091;28;20411;-79
2021/06/08 02:41:22;;;;;;;14.82;13.55;;;;;;;;;;5090866;28;20792;-79
2021/06/08 02:43:49;;;;;;;14.88;13.48;;;;;;;;;;5091087;28;20443;-79
2021/06/08 02:46:15;;;;;;;15.63;14.13;;;;;;;;;;5091456;28;21138;-78
2021/06/08 02:48:41;;;;;;;15.48;14.05;;;;;;;;;;5090807;28;20449;-78
2021/06/08 02:51:08;;;;;;;14.52;13.23;;;;;;;;;;5091071;28;20373;-78
2021/06/08 02:53:35;;;;;;;15.32;13.80;;;;;;;;;;5090701;28;20372;-79
2021/06/08 02:56:01;;;;;;;15.40;13.93;;;;;;;;;;5090597;28;20897;-78
2021/06/08 02:58:28;;;;;;;16.10;14.80;;;;;;;;;;5072464;28;20735;-79
2021/06/08 03:00:54;;;;;;;15.70;14.40;;;;;;;;;;5090891;28;20372;-78
2021/06/08 03:03:35;;;;;;;15.88;14.48;;;;;;;;;;5090195;28;20410;-79
2021/06/08 03:06:04;;;;;;;16.77;15.27;;;;;;;;;;5090564;28;20388;-78
2021/06/08 03:08:32;;;;;;;16.75;15.18;;;;;;;;;;5090354;28;20396;-78
2021/06/08 03:11:00;;;;;;;16.38;14.88;;;;;;;;;;5090440;28;20391;-78
2021/06/08 03:13:27;;;;;;;16.33;14.85;;;;;;;;;;5071746;28;20755;-79
2021/06/08 03:15:58;;;;;;;16.92;15.32;;;;;;;;;;5089947;28;20372;-77
2021/06/08 03:18:26;;;;;;;16.40;15.02;;;;;;;;;;5090302;28;20375;-79
2021/06/08 03:21:00;;;;;;;17.52;16.02;;;;;;;;;;5090183;28;20861;-78
2021/06/08 03:23:28;;;;;;;18.08;16.27;;;;;;;;;;5090337;28;20369;-78
2021/06/08 03:25:55;;;;;;;17.45;15.75;;;;;;;;;;5090053;28;20361;-78
2021/06/08 03:28:24;;;;;;;18.25;16.65;;;;;;;;;;5090038;28;20412;-78
2021/06/08 03:30:51;;;;;;;19.40;17.60;;;;;;;;;;5090126;28;20369;-78
2021/06/08 03:33:17;;;;;;;18.13;16.42;;;;;;;;;;5071620;28;20392;-78
2021/06/08 03:35:44;;;;;;;18.13;16.33;;;;;;;;;;5090130;28;20418;-78
2021/06/08 03:38:10;;;;;;;17.50;15.90;;;;;;;;;;5090212;28;20364;-79
2021/06/08 03:40:36;;;;;;;26.10;16.67;;;;;;;;;;5090435;28;20380;-78
2021/06/08 03:43:03;;;;;;;28.83;18.27;;;;;;;;;;5070986;28;20368;-78
2021/06/08 03:45:29;;;;;;;20.20;18.00;;;;;;;;;;5089744;28;20766;-78
2021/06/08 03:47:57;;;;;;;17.80;15.98;;;;;;;;;;5089619;28;20936;-79
2021/06/08 03:50:24;;;;;;;17.05;15.45;;;;;;;;;;5089711;28;20361;-78
2021/06/08 03:52:50;;;;;;;22.25;15.38;;;;;;;;;;5089543;28;20372;-77
2021/06/08 03:55:20;;;;;;;19.05;15.00;;;;;;;;;;5089866;28;20373;-78
2021/06/08 03:57:48;;;;;;;19.48;17.23;;;;;;;;;;5089761;28;20380;-78
2021/06/08 04:00:15;;;;;;;20.27;18.40;;;;;;;;;;5071573;28;20384;-78
2021/06/08 04:02:42;;;;;;;20.33;18.53;;;;;;;;;;5089292;28;20874;-79
2021/06/08 04:05:08;;;;;;;19.98;18.17;;;;;;;;;;5089545;28;20361;-78
2021/06/08 04:07:35;;;;;;;19.33;17.63;;;;;;;;;;5089392;28;20400;-78
2021/06/08 04:10:01;;;;;;;17.95;16.45;;;;;;;;;;5070875;28;20769;-78
2021/06/08 04:12:27;;;;;;;18.65;16.98;;;;;;;;;;5089338;28;20365;-78
2021/06/08 04:14:53;;;;;;;19.05;17.25;;;;;;;;;;5089580;28;20423;-78
2021/06/08 04:17:19;;;;;;;19.45;17.65;;;;;;;;;;5089402;28;20426;-78
2021/06/08 04:19:45;;;;;;;16.35;14.85;;;;;;;;;;5089208;28;20455;-78
2021/06/08 04:22:11;;;;;;;17.60;16.00;;;;;;;;;;5088607;28;20427;-78
2021/06/08 04:24:37;;;;;;;18.00;16.30;;;;;;;;;;5088853;28;20416;-79
2021/06/08 04:27:04;;;;;;;17.25;15.55;;;;;;;;;;5089447;28;20549;-78
2021/06/08 04:29:30;;;;;;;17.63;16.07;;;;;;;;;;5089263;28;20368;-78
2021/06/08 04:31:56;;;;;;;15.95;14.63;;;;;;;;;;5070459;28;20411;-78
2021/06/08 04:34:23;;;;;;;16.42;15.02;;;;;;;;;;5070960;28;20855;-79
2021/06/08 04:36:49;;;;;;;15.98;14.50;;;;;;;;;;5062790;28;20380;-78
2021/06/08 04:39:16;;;;;;;16.15;14.73;;;;;;;;;;5070706;28;20435;-78
2021/06/08 04:41:42;;;;;;;16.92;15.38;;;;;;;;;;5088621;28;20379;-78
2021/06/08 04:44:08;;;;;;;15.77;14.35;;;;;;;;;;5088889;28;20407;-79
2021/06/08 04:46:38;;;;;;;16.58;15.02;;;;;;;;;;5087998;28;20415;-79
2021/06/08 04:49:04;;;;;;;16.05;14.65;;;;;;;;;;5070749;28;20939;-79
2021/06/08 04:51:30;;;;;;;16.80;15.25;;;;;;;;;;5088796;28;20391;-78
2021/06/08 04:53:56;;;;;;;16.48;14.98;;;;;;;;;;5088671;28;20604;-79
2021/06/08 04:56:22;;;;;;;15.68;14.20;;;;;;;;;;5088828;28;20471;-78
2021/06/08 04:58:48;;;;;;;15.07;13.73;;;;;;;;;;5088226;28;20376;-80
2021/06/08 05:01:27;;;;;;;14.38;12.95;;;;;;;;;;5088686;28;20376;-78
2021/06/08 05:03:58;;;;;;;14.67;13.20;;;;;;;;;;5062287;28;20388;-81
2021/06/08 05:06:28;;;;;;;15.43;13.93;;;;;;;;;;5088092;28;20968;-78
2021/06/08 05:08:56;;;;;;;15.32;13.95;;;;;;;;;;5087875;28;20400;-78
2021/06/08 05:11:25;;;;;;;14.20;12.83;;;;;;;;;;5088866;28;20407;-78
2021/06/08 05:13:52;;;;;;;13.15;11.65;;;;;;;;;;5088986;28;20502;-80
2021/06/08 05:16:18;;;;;;;13.27;12.07;;;;;;;;;;5088719;28;20463;-79
2021/06/08 05:18:45;;;;;;;14.40;13.00;;;;;;;;;;5088312;28;20472;-79
2021/06/08 05:21:12;;;;;;;13.05;11.82;;;;;;;;;;5091021;28;20482;-79
2021/06/08 05:23:38;;;;;;;13.30;12.20;;;;;;;;;;5092276;28;20364;-79
2021/06/08 05:26:04;;;;;;;13.13;12.03;;;;;;;;;;5092808;28;20873;-78
2021/06/08 05:28:33;;;;;;;13.67;12.47;;;;;;;;;;5092992;28;20400;-78
2021/06/08 05:30:59;;;;;;;13.73;11.68;;;;;;;;;;5092915;28;20434;-78
2021/06/08 05:33:25;;;;;;;12.93;11.57;;;;;;;;;;5091752;28;20881;-78
2021/06/08 05:35:55;;;;;;;12.03;10.93;;;;;;;;;;5091844;28;20372;-78
2021/06/08 05:38:33;;;;;;;12.40;11.10;;;;;;;;;;5092369;28;20941;-79
2021/06/08 05:41:06;;;;;;;11.73;10.67;;;;;;;;;;5092275;28;20384;-78
2021/06/08 05:43:32;;;;;;;14.25;10.70;;;;;;;;;;5092429;28;20409;-78
2021/06/08 05:45:59;;;;;;;11.93;9.60;;;;;;;;;;5092030;28;20372;-78
2021/06/08 05:48:26;;;;;;;11.83;10.63;;;;;;;;;;5092139;28;20399;-79
2021/06/08 05:50:59;;;;;;;11.35;10.23;;;;;;;;;;5092624;28;20885;-78
2021/06/08 05:53:25;;;;;;;10.98;9.93;;;;;;;;;;5092087;28;20456;-78
2021/06/08 05:55:52;;;;;;;11.00;9.90;;;;;;;;;;5092186;28;20380;-78
2021/06/08 05:58:29;;;;;;;10.50;9.60;;;;;;;;;;5091734;28;20360;-78
2021/06/08 06:00:55;;;;;;;12.38;9.88;;;;;;;;;;5073918;28;20381;-78
2021/06/08 06:03:23;;;;;;;55.70;13.38;;;;;;;;;;5091567;28;20854;-78
2021/06/08 06:05:49;;;;;;;10.60;9.10;;;;;;;;;;5092231;28;20431;-78
2021/06/08 06:08:16;;;;;;;13.10;8.98;;;;;;;;;;5091855;28;20432;-78
2021/06/08 06:10:45;;;;;;;8.98;8.10;;;;;;;;;;5092183;28;20900;-79
2021/06/08 06:13:18;;;;;;;14.32;9.55;;;;;;;;;;5091219;28;20369;-79
2021/06/08 06:15:45;;;;;;;9.32;8.48;;;;;;;;;;5073507;28;20395;-78
2021/06/08 06:18:12;;;;;;;9.07;8.27;;;;;;;;;;5091853;28;20757;-79
2021/06/08 06:20:38;;;;;;;9.07;8.27;;;;;;;;;;5091361;28;20463;-78
2021/06/08 06:23:05;;;;;;;9.43;8.53;;;;;;;;;;5091235;28;20368;-79
2021/06/08 06:25:32;;;;;;;9.73;8.82;;;;;;;;;;5091199;28;20807;-78
2021/06/08 06:27:58;;;;;;;9.10;8.25;;;;;;;;;;5091736;28;20750;-79
2021/06/08 06:30:24;;;;;;;8.87;7.87;;;;;;;;;;5091407;28;20364;-78
2021/06/08 06:32:50;;;;;;;11.43;8.23;;;;;;;;;;5089822;28;20360;-78
2021/06/08 06:35:16;;;;;;;11.70;7.93;;;;;;;;;;5091235;28;20447;-78
2021/06/08 06:37:43;;;;;;;16.67;8.25;;;;;;;;;;5091567;28;20364;-79
2021/06/08 06:40:15;;;;;;;8.18;7.38;;;;;;;;;;5072826;28;20383;-78
2021/06/08 06:42:43;;;;;;;8.70;7.78;;;;;;;;;;5090882;28;20372;-79
2021/06/08 06:45:09;;;;;;;8.77;7.70;;;;;;;;;;5090768;28;20380;-79
2021/06/08 06:47:39;;;;;;;8.80;7.90;;;;;;;;;;5090886;28;20974;-79
2021/06/08 06:50:10;;;;;;;8.52;7.72;;;;;;;;;;5090651;28;20899;-79
2021/06/08 06:52:37;;;;;;;11.02;7.10;;;;;;;;;;5090232;28;20369;-79
2021/06/08 06:55:04;;;;;;;10.27;8.00;;;;;;;;;;5072054;28;20803;-80
2021/06/08 06:57:29;;;;;;;8.20;7.28;;;;;;;;;;5090559;28;20368;-79
2021/06/08 06:59:55;;;;;;;8.15;7.00;;;;;;;;;;5072480;28;20390;-80
2021/06/08 07:02:22;;;;;;;7.85;7.15;;;;;;;;;;5090091;28;20383;-79
2021/06/08 07:04:49;;;;;;;8.88;6.95;;;;;;;;;;5089673;28;20471;-80
2021/06/08 07:07:19;;;;;;;7.63;6.85;;;;;;;;;;5089200;28;20415;-77
2021/06/08 07:09:46;;;;;;;8.63;6.57;;;;;;;;;;5079427;28;20384;-78
2021/06/08 07:12:12;;;;;;;7.60;6.25;;;;;;;;;;5090026;28;20419;-79
2021/06/08 07:14:40;;;;;;;7.18;6.57;;;;;;;;;;5090227;28;20400;-80
2021/06/08 07:17:06;;;;;;;9.40;6.30;;;;;;;;;;5070882;28;20473;-80
2021/06/08 07:19:33;;;;;;;6.03;5.40;;;;;;;;;;5109637;28;20391;-80
2021/06/08 07:22:00;;;;;;;6.70;5.80;;;;;;;;;;5109908;28;20386;-78
2021/06/08 07:24:27;;;;;;;6.40;5.80;;;;;;;;;;5089982;28;20396;-79
2021/06/08 07:26:54;;;;;;;6.80;6.10;;;;;;;;;;5071609;28;20381;-79
2021/06/08 07:29:20;;;;;;;6.72;6.13;;;;;;;;;;5090041;28;20372;-82
2021/06/08 07:31:55;;;;;;;6.50;6.00;;;;;;;;;;5048702;28;20390;-79
2021/06/08 07:34:26;;;;;;;13.05;6.00;;;;;;;;;;5067940;28;20785;-78
2021/06/08 07:36:55;;;;;;;5.68;5.15;;;;;;;;;;5067584;28;21141;-77
2021/06/08 07:39:23;;;;;;;6.57;5.10;;;;;;;;;;5069714;28;20377;-78
2021/06/08 07:41:57;;;;;;;6.30;5.40;;;;;;;;;;5072237;28;20876;-78
2021/06/08 07:44:28;;;;;;;7.22;5.35;;;;;;;;;;5089479;28;20369;-77
2021/06/08 07:46:54;;;;;;;5.57;5.18;;;;;;;;;;5088846;28;20476;-77
2021/06/08 07:49:22;;;;;;;6.15;5.55;;;;;;;;;;5089999;28;20866;-78
2021/06/08 07:51:49;;;;;;;6.68;5.40;;;;;;;;;;5089541;28;20372;-78
2021/06/08 07:54:15;;;;;;;5.28;4.80;;;;;;;;;;5089889;28;20375;-78
2021/06/08 07:56:41;;;;;;;6.57;4.88;;;;;;;;;;5089661;28;20372;-78
2021/06/08 07:59:09;;;;;;;4.85;4.38;;;;;;;;;;5089869;28;20376;-77
2021/06/08 08:01:35;;;;;;;7.03;4.93;;;;;;;;;;5088873;28;20384;-77
2021/06/08 08:04:08;;;;;;;4.97;4.43;;;;;;;;;;5089659;28;20381;-77
2021/06/08 08:06:34;;;;;;;6.35;4.88;;;;;;;;;;5089080;28;20380;-78
2021/06/08 08:09:02;;;;;;;7.03;4.50;;;;;;;;;;5089215;28;20416;-78
2021/06/08 08:11:29;;;;;;;4.35;4.00;;;;;;;;;;5070715;28;20385;-78
2021/06/08 08:13:57;;;;;;;4.47;4.03;;;;;;;;;;5089132;28;20377;-78
2021/06/08 08:16:23;;;;;;;18.20;5.20;;;;;;;;;;5070715;28;20466;-79
2021/06/08 08:18:50;;;;;;;6.57;4.00;;;;;;;;;;5088948;28;20864;-78
2021/06/08 08:21:18;;;;;;;12.65;4.72;;;;;;;;;;5088904;28;20376;-78
2021/06/08 08:23:44;;;;;;;5.13;4.20;;;;;;;;;;5088701;28;20384;-77
2021/06/08 08:26:11;;;;;;;7.25;4.30;;;;;;;;;;5088699;28;20380;-78
2021/06/08 08:28:38;;;;;;;4.80;4.38;;;;;;;;;;5088488;28;20941;-78
2021/06/08 08:31:06;;;;;;;6.45;4.60;;;;;;;;;;5087510;28;20387;-77
2021/06/08 08:33:33;;;;;;;7.65;5.30;;;;;;;;;;5087263;28;20392;-78
2021/06/08 08:36:00;;;;;;;5.50;4.88;;;;;;;;;;5087842;28;20866;-78
2021/06/08 08:38:26;;;;;;;5.20;4.53;;;;;;;;;;5088888;28;20376;-78
2021/06/08 08:40:52;;;;;;;6.45;5.18;;;;;;;;;;5070905;28;20943;-79
2021/06/08 08:43:19;;;;;;;5.85;4.65;;;;;;;;;;5088350;28;20908;-79
2021/06/08 08:45:45;;;;;;;4.40;3.97;;;;;;;;;;5088902;28;20390;-79
2021/06/08 08:48:11;;;;;;;4.73;4.33;;;;;;;;;;5088750;28;20985;-81
2021/06/08 08:50:37;;;;;;;9.85;5.05;;;;;;;;;;5089057;28;20365;-79
2021/06/08 08:53:05;;;;;;;4.90;4.40;;;;;;;;;;5088357;28;20395;-82
2021/06/08 08:55:32;;;;;;;7.80;4.90;;;;;;;;;;5088098;28;20361;-79
2021/06/08 08:58:00;;;;;;;5.90;4.20;;;;;;;;;;5070597;28;20392;-80
2021/06/08 09:00:27;;;;;;;18.63;6.10;;;;;;;;;;5070092;28;20384;-82
2021/06/08 09:02:56;;;;;;;5.28;4.78;;;;;;;;;;5089032;28;20816;-83
2021/06/08 09:05:23;;;;;;;5.50;5.00;;;;;;;;;;5088562;28;20785;-81
2021/06/08 09:07:50;;;;;;;6.10;5.30;;;;;;;;;;5088799;28;20396;-79
2021/06/08 09:10:16;;;;;;;5.63;4.30;;;;;;;;;;5088476;28;20376;-78
2021/06/08 09:12:42;;;;;;;5.00;4.40;;;;;;;;;;5088489;28;20368;-80
2021/06/08 09:15:09;;;;;;;5.30;4.77;;;;;;;;;;5088727;28;20386;-80
2021/06/08 09:17:38;;;;;;;5.27;4.77;;;;;;;;;;5070068;28;20467;-85
2021/06/08 09:20:04;;;;;;;5.65;5.15;;;;;;;;;;5088419;28;20450;-81
2021/06/08 09:22:49;;;;;;;6.88;4.55;;;;;;;;;;5088283;28;20380;-80
2021/06/08 09:25:38;;;;;;;6.95;4.35;;;;;;;;;;5088303;28;20854;-81
2021/06/08 09:28:20;;;;;;;6.43;4.05;;;;;;;;;;5088789;28;20407;-80
2021/06/08 09:30:47;;;;;;;5.03;4.50;;;;;;;;;;5088301;28;20384;-82
2021/06/08 09:33:23;;;;;;;5.18;4.63;;;;;;;;;;5088899;28;20850;-79
2021/06/08 09:35:50;;;;;;;4.97;4.40;;;;;;;;;;5088312;28;20832;-81
2021/06/08 09:38:16;;;;;;;5.70;4.72;;;;;;;;;;5088466;28;20373;-82
2021/06/08 09:40:42;;;;;;;6.43;4.70;;;;;;;;;;5086641;28;20385;-78
2021/06/08 09:43:10;;;;;;;5.53;5.03;;;;;;;;;;5108257;28;20367;-78
2021/06/08 09:45:43;;;;;;;5.03;4.60;;;;;;;;;;5090948;28;20388;-77
2021/06/08 09:48:09;;;;;;;4.88;4.40;;;;;;;;;;5093250;28;20505;-78
2021/06/08 09:50:36;;;;;;;6.30;4.60;;;;;;;;;;5092265;28;20388;-77
2021/06/08 09:53:21;;;;;;;5.88;4.80;;;;;;;;;;5087191;28;20414;-78
2021/06/08 09:55:48;;;;;;;6.53;4.70;;;;;;;;;;5087911;28;20383;-78
2021/06/08 09:58:14;;;;;;;10.37;4.87;;;;;;;;;;5087503;28;20380;-77
2021/06/08 10:00:40;;;;;;;7.43;4.80;;;;;;;;;;5088167;28;20380;-77
2021/06/08 10:03:06;;;;;;;9.05;4.20;;;;;;;;;;5086641;28;20380;-77
2021/06/08 10:05:33;;;;;;;6.23;4.90;;;;;;;;;;5088041;28;20892;-78
2021/06/08 10:07:59;;;;;;;10.80;4.93;;;;;;;;;;5091029;28;20407;-77
2021/06/08 10:10:26;;;;;;;4.97;3.78;;;;;;;;;;5090606;28;20399;-78
2021/06/08 10:12:55;;;;;;;7.35;4.45;;;;;;;;;;5091582;28;20360;-78
2021/06/08 10:15:21;;;;;;;5.20;4.13;;;;;;;;;;5090703;28;20878;-77
2021/06/08 10:17:47;;;;;;;5.50;4.30;;;;;;;;;;5091611;28;20386;-76
2021/06/08 10:20:24;;;;;;;5.53;4.22;;;;;;;;;;5090741;28;20356;-76
2021/06/08 10:22:50;;;;;;;4.93;4.43;;;;;;;;;;5072754;28;20396;-77
2021/06/08 10:25:16;;;;;;;7.60;4.05;;;;;;;;;;5072231;28;21142;-77
2021/06/08 10:27:43;;;;;;;5.55;4.10;;;;;;;;;;5091079;28;20400;-76
2021/06/08 10:30:09;;;;;;;4.22;3.92;;;;;;;;;;5090960;28;20372;-76
2021/06/08 10:32:36;;;;;;;7.90;4.20;;;;;;;;;;5090480;28;20447;-76
2021/06/08 10:35:02;;;;;;;5.07;4.13;;;;;;;;;;5090735;28;20931;-76
2021/06/08 10:37:28;;;;;;;5.00;3.92;;;;;;;;;;5090714;28;20981;-76
2021/06/08 10:39:55;;;;;;;6.15;3.60;;;;;;;;;;5090495;28;20368;-76
2021/06/08 10:42:21;;;;;;;7.10;3.85;;;;;;;;;;5072445;28;20400;-77
2021/06/08 10:44:48;;;;;;;6.30;4.40;;;;;;;;;;5090381;28;20368;-76
2021/06/08 10:47:23;;;;;;;6.97;4.00;;;;;;;;;;5090370;28;20486;-76
2021/06/08 10:49:52;;;;;;;6.60;4.00;;;;;;;;;;5090416;28;20388;-77
2021/06/08 10:52:18;;;;;;;11.50;4.82;;;;;;;;;;5071778;28;20487;-76
2021/06/08 10:54:46;;;;;;;5.13;4.22;;;;;;;;;;5090615;28;20365;-76
2021/06/08 10:57:16;;;;;;;6.18;4.18;;;;;;;;;;5089623;28;20932;-76
2021/06/08 10:59:46;;;;;;;5.45;4.07;;;;;;;;;;5072150;28;20391;-76
2021/06/08 11:02:32;;;;;;;6.90;3.70;;;;;;;;;;5089858;28;20948;-77
2021/06/08 11:04:59;;;;;;;5.70;3.90;;;;;;;;;;5057984;28;20376;-76
2021/06/08 11:07:47;;;;;;;4.47;4.07;;;;;;;;;;5089609;28;20440;-74
2021/06/08 11:10:29;;;;;;;4.93;3.92;;;;;;;;;;5084401;28;20848;-80
2021/06/08 11:13:13;;;;;;;4.45;3.95;;;;;;;;;;5109542;28;20457;-80
2021/06/08 11:15:39;;;;;;;6.32;4.03;;;;;;;;;;5091450;28;20458;-78
2021/06/08 11:18:18;;;;;;;6.65;4.15;;;;;;;;;;5109689;28;20362;-83
2021/06/08 11:20:44;;;;;;;6.07;4.40;;;;;;;;;;5110539;28;20386;-79
2021/06/08 11:23:10;;;;;;;5.03;4.10;;;;;;;;;;5110438;28;20903;-80
2021/06/08 11:25:41;;;;;;;4.30;3.92;;;;;;;;;;5110748;28;20363;-81
2021/06/08 11:28:08;;;;;;;5.35;4.40;;;;;;;;;;5092070;28;20399;-80
2021/06/08 11:30:39;;;;;;;5.18;4.13;;;;;;;;;;5110001;28;20442;-79
2021/06/08 11:33:09;;;;;;;6.22;4.28;;;;;;;;;;5109289;28;20363;-82
2021/06/08 11:35:43;;;;;;;6.47;4.67;;;;;;;;;;5110349;28;20378;-77
2021/06/08 11:38:11;;;;;;;5.35;4.85;;;;;;;;;;5110521;28;20367;-78
2021/06/08 11:40:40;;;;;;;5.20;4.18;;;;;;;;;;5110321;28;20369;-78
2021/06/08 11:43:13;;;;;;;7.75;4.70;;;;;;;;;;5110449;28;20879;-77
2021/06/08 11:45:39;;;;;;;6.65;4.15;;;;;;;;;;5110494;28;20859;-78
2021/06/08 11:48:25;;;;;;;5.80;4.22;;;;;;;;;;5092066;28;20409;-78
2021/06/08 11:50:51;;;;;;;4.93;4.43;;;;;;;;;;5090487;28;20378;-81
2021/06/08 11:53:17;;;;;;;18.60;5.32;;;;;;;;;;5079459;28;20399;-77
2021/06/08 11:55:45;;;;;;;5.35;4.40;;;;;;;;;;5079566;28;20370;-77
2021/06/08 11:58:46;;;;;;;7.25;4.05;;;;;;;;;;5078059;28;20456;-82
2021/06/08 12:01:32;;;;;;;5.55;3.80;;;;;;;;;;4998354;28;20932;-80
2021/06/08 12:03:59;;;;;;;5.30;3.90;;;;;;;;;;5096579;28;20844;-82
2021/06/08 12:06:45;;;;;;;6.35;3.88;;;;;;;;;;5095488;28;20364;-83
2021/06/08 12:09:17;;;;;;;5.50;3.90;;;;;;;;;;5088199;28;20403;-81
2021/06/08 12:11:43;;;;;;;6.28;4.05;;;;;;;;;;5085553;28;20420;-83
2021/06/08 12:14:09;;;;;;;4.60;4.15;;;;;;;;;;5088250;28;20458;-83
2021/06/08 12:16:35;;;;;;;7.88;4.88;;;;;;;;;;5087602;28;21110;-82
2021/06/08 12:19:07;;;;;;;6.43;4.28;;;;;;;;;;5066566;28;20404;-83
2021/06/08 12:21:34;;;;;;;6.20;3.80;;;;;;;;;;5085643;28;20379;-80
2021/06/08 12:24:00;;;;;;;5.63;4.55;;;;;;;;;;5087258;28;20460;-81
2021/06/08 12:26:27;;;;;;;5.25;4.20;;;;;;;;;;5069486;28;20383;-84
2021/06/08 12:29:04;;;;;;;4.18;3.78;;;;;;;;;;5086865;28;20487;-85
2021/06/08 12:31:31;;;;;;;4.50;4.10;;;;;;;;;;5081102;28;20392;-78
2021/06/08 12:33:58;;;;;;;5.82;3.95;;;;;;;;;;5085290;28;20404;-79
2021/06/08 12:36:24;;;;;;;5.95;3.85;;;;;;;;;;5068829;28;20777;-82
2021/06/08 12:38:51;;;;;;;4.80;3.95;;;;;;;;;;5086845;28;20397;-81
2021/06/08 12:41:19;;;;;;;5.38;4.00;;;;;;;;;;5087064;28;20380;-85
2021/06/08 12:43:51;;;;;;;5.75;3.78;;;;;;;;;;5068757;28;20423;-84
2021/06/08 12:46:24;;;;;;;4.00;3.60;;;;;;;;;;5085260;28;20379;-84
2021/06/08 12:49:09;;;;;;;4.93;3.83;;;;;;;;;;5065431;28;20400;-78
2021/06/08 12:51:38;;;;;;;4.40;3.80;;;;;;;;;;5085935;28;20372;-85
2021/06/08 12:54:05;;;;;;;8.48;3.85;;;;;;;;;;5086715;28;20380;-87
2021/06/08 12:56:32;;;;;;;4.82;3.70;;;;;;;;;;5086695;28;20469;-86
2021/06/08 12:58:58;;;;;;;4.70;4.00;;;;;;;;;;5068957;28;20847;-85
2021/06/08 13:01:24;;;;;;;4.30;3.72;;;;;;;;;;5068516;28;20866;-87
2021/06/08 13:03:51;;;;;;;5.28;3.83;;;;;;;;;;5088519;28;20372;-86
2021/06/08 13:06:20;;;;;;;3.97;3.60;;;;;;;;;;5087478;28;20372;-82
2021/06/08 13:08:59;;;;;;;5.88;4.18;;;;;;;;;;5087739;28;20465;-82
2021/06/08 13:11:27;;;;;;;6.15;4.20;;;;;;;;;;5073348;28;20383;-83
2021/06/08 13:13:53;;;;;;;5.43;4.05;;;;;;;;;;5096407;28;20910;-88
2021/06/08 13:16:35;;;;;;;5.25;4.22;;;;;;;;;;5096663;28;20382;-83
2021/06/08 13:19:19;;;;;;;8.40;4.38;;;;;;;;;;5090383;28;20902;-78
2021/06/08 13:21:46;;;;;;;5.38;4.00;;;;;;;;;;5086486;28;20842;-88
2021/06/08 13:24:13;;;;;;;7.50;4.20;;;;;;;;;;5069979;28;20948;-84
2021/06/08 13:26:40;;;;;;;16.25;5.03;;;;;;;;;;5087858;28;20888;-85
2021/06/08 13:29:14;;;;;;;16.15;5.25;;;;;;;;;;5087104;28;20481;-86
2021/06/08 13:31:41;;;;;;;5.28;4.40;;;;;;;;;;5069490;28;20703;-80
2021/06/08 13:34:21;;;;;;;4.95;4.20;;;;;;;;;;5087033;28;20380;-82
2021/06/08 13:36:47;;;;;;;4.97;4.13;;;;;;;;;;5086540;28;21159;-84
2021/06/08 13:39:17;;;;;;;5.00;4.30;;;;;;;;;;5067778;28;20372;-85
2021/06/08 13:41:44;;;;;;;4.80;4.13;;;;;;;;;;5090792;28;20376;-82
2021/06/08 13:44:11;;;;;;;6.80;4.30;;;;;;;;;;5092653;28;20360;-81
2021/06/08 13:46:37;;;;;;;5.30;4.22;;;;;;;;;;5072170;28;20383;-85
2021/06/08 13:49:04;;;;;;;6.80;4.43;;;;;;;;;;5092199;28;20404;-87
2021/06/08 13:51:34;;;;;;;4.78;4.22;;;;;;;;;;5073792;28;20380;-85
2021/06/08 13:54:06;;;;;;;5.07;4.55;;;;;;;;;;5073943;28;20467;-83
2021/06/08 13:56:40;;;;;;;6.82;4.43;;;;;;;;;;5073331;28;20377;-87
2021/06/08 14:01:52;;;;;;;6.40;4.55;;;;;;;;;;5090328;28;20395;-86
2021/06/08 14:04:20;;;;;;;8.13;4.67;;;;;;;;;;5088788;28;20390;-81
2021/06/08 14:06:57;;;;;;;6.05;4.93;;;;;;;;;;5084623;28;20399;-83
2021/06/08 14:09:24;;;;;;;7.35;4.78;;;;;;;;;;5072457;28;20400;-83
2021/06/08 14:11:52;;;;;;;5.83;4.57;;;;;;;;;;5091448;28;20769;-88
2021/06/08 14:14:29;;;;;;;7.78;4.82;;;;;;;;;;5071926;28;20815;-82
2021/06/08 14:17:06;;;;;;;4.82;4.10;;;;;;;;;;5081593;28;20870;-87
2021/06/08 14:19:32;;;;;;;6.45;4.93;;;;;;;;;;5087853;28;20405;-83
2021/06/08 14:21:58;;;;;;;5.53;4.63;;;;;;;;;;5089828;28;20384;-83
2021/06/08 14:24:24;;;;;;;8.47;5.50;;;;;;;;;;5087729;28;20373;-80
2021/06/08 14:26:51;;;;;;;5.60;5.10;;;;;;;;;;5076860;28;20371;-81
2021/06/08 14:29:18;;;;;;;6.22;4.97;;;;;;;;;;5089949;28;20462;-82
2021/06/08 14:31:44;;;;;;;5.10;4.70;;;;;;;;;;5087365;28;20377;-81
2021/06/08 14:34:10;;;;;;;6.28;4.90;;;;;;;;;;5088749;28;21003;-84
2021/06/08 14:36:48;;;;;;;5.45;4.70;;;;;;;;;;5065679;28;20483;-83
2021/06/08 14:39:14;;;;;;;5.57;4.85;;;;;;;;;;5063856;28;20404;-80
2021/06/08 14:41:40;;;;;;;4.90;4.50;;;;;;;;;;5089123;28;20415;-81